Weeping Water, NE (68463)

2:50 PM CDT on August 31, 2015 (GMT -0500)
Southridge | | Change Station
CLOSE
Current Station
Personal Weather Station
Location: Louisville, NE
Elevation: 1083 ft
Nearby Weather Stations

Elev 1083 ft 40.99 °N, 96.15 °W | Updated 47 seconds ago

Partly Cloudy
Partly Cloudy
85.6 °F
Feels Like 91 °F
N
2.0
Wind Variable Wind from SSE
Gusts 6.0 mph

Today
High -- | Low -- °F
--% Chance of Precip.
Yesterday
High -- | Low -- °F
Precip. -- in
6:50 AM 7:58 PM
Waning Gibbous, 94% visible
Pressure 29.96 in
Visibility 10.0 miles
Clouds Scattered Clouds 3700 ft
Scattered Clouds 4500 ft
Heat Index 91 °F
Dew Point 72 °F
Humidity 63%
Rainfall 0.00 in
Snow Depth Not available.
UV 7 out of 12
Pollen 11.10 out of 12
Air Quality Not available.
Flu Activity Not available.
METAR KPMV 311935Z AUTO 17008KT 10SM SCT037 SCT045 28/19 A2996 RMK AO2 T02820188
Pressure 29.96 in
Visibility 10.0 miles
Clouds Scattered Clouds 3700 ft
Scattered Clouds 4500 ft
Heat Index 91 °F
Dew Point 72 °F
Humidity 63%
Rainfall 0.00 in
Snow Depth Not available.
UV 7 out of 12
Pollen 11.10 out of 12
Air Quality Not available.
Flu Activity Not available.
METAR KPMV 311935Z AUTO 17008KT 10SM SCT037 SCT045 28/19 A2996 RMK AO2 T02820188

10-Day Weather Forecast

×

Almanac

Astronomy

Aug. 31, 2015 Rise Set
Actual Time
Civil Twilight
Nautical Twilight
Astronomical Twilight
Moon
Length of Visible Light
Length of Day
Tomorrow will be .
, % of the Moon is Illuminated

Today's Extremes

State Highs State Lows

Community

WunderPhotos

Upload Photos

1,851,346 photos uploaded!

WunderBlogs® & News

Nearby

Air Quality

  Air Quality AQ Index Pollutant
Not available.

Snow Depth

Station Depth Elevation

Earthquake Activity

City Distance Mag. Time & Date
Minimum magnitude displayed is 2.5.

Coastal Water Temperatures

Place Temperature

Stations

Nearby Weather Stations

Station Location Temp. Windchill Dew Point Humidity Wind Precip. Elev Updated Type